createdAt,value
2018-12-04T00:00:53.683Z,98.77
2018-12-04T00:01:57.607Z,97.46
2018-12-04T00:03:00.678Z,97.50
2018-12-04T00:04:03.706Z,96.68
2018-12-04T00:05:06.309Z,95.96
2018-12-04T00:06:08.884Z,95.98
2018-12-04T00:07:12.124Z,96.40
2018-12-04T00:08:14.779Z,96.30
2018-12-04T00:09:17.391Z,96.94
2018-12-04T00:10:20.438Z,97.02
2018-12-04T00:11:23.334Z,95.93
2018-12-04T00:12:26.504Z,96.90
2018-12-04T00:13:29.434Z,97.55
2018-12-04T00:14:32.053Z,97.29
2018-12-04T00:15:35.116Z,97.07
2018-12-04T00:16:37.739Z,97.24
2018-12-04T00:17:40.662Z,96.94
2018-12-04T00:18:43.579Z,96.57
2018-12-04T00:19:46.880Z,97.19
2018-12-04T00:20:49.423Z,97.24
2018-12-04T00:21:52.126Z,96.69
2018-12-04T00:22:55.195Z,96.17
2018-12-04T00:23:57.871Z,95.52
2018-12-04T00:25:01.371Z,95.56
2018-12-04T00:26:04.995Z,94.14
2018-12-04T00:27:07.772Z,94.23
2018-12-04T00:28:10.911Z,93.83
2018-12-04T00:29:13.958Z,93.76
2018-12-04T00:30:17.053Z,93.98
2018-12-04T00:31:19.609Z,93.65
2018-12-04T00:32:22.627Z,94.19
2018-12-04T00:33:25.460Z,94.11
2018-12-04T00:34:28.724Z,93.62
2018-12-04T00:35:31.279Z,93.38
2018-12-04T00:36:33.868Z,94.18
2018-12-04T00:37:36.709Z,94.34
2018-12-04T00:38:40.758Z,93.75
2018-12-04T00:39:43.366Z,94.16
2018-12-04T00:40:45.938Z,94.02
2018-12-04T00:41:48.514Z,93.95
2018-12-04T00:42:51.291Z,93.28
2018-12-04T00:43:53.965Z,92.91
2018-12-04T00:44:56.986Z,94.05
2018-12-04T00:46:00.168Z,92.95
2018-12-04T00:47:02.832Z,93.50
2018-12-04T00:48:05.800Z,93.51
2018-12-04T00:49:08.746Z,93.50
2018-12-04T00:50:11.604Z,93.62
2018-12-04T00:51:14.917Z,93.36
2018-12-04T00:52:17.698Z,93.42
2018-12-04T00:53:20.625Z,93.95
2018-12-04T00:54:23.227Z,93.79
2018-12-04T00:55:25.854Z,93.95
2018-12-04T00:56:28.882Z,93.09
2018-12-04T00:57:31.465Z,93.51
2018-12-04T00:58:34.085Z,92.85
2018-12-04T00:59:37.123Z,92.97
2018-12-04T01:00:40.063Z,93.35
2018-12-04T01:01:43.278Z,93.69
2018-12-04T01:02:46.294Z,93.87
2018-12-04T01:03:49.249Z,94.34
2018-12-04T01:04:51.883Z,93.98
2018-12-04T01:05:54.675Z,94.19
2018-12-04T01:06:57.505Z,94.21
2018-12-04T01:08:00.225Z,94.44
2018-12-04T01:09:02.822Z,94.87
2018-12-04T01:10:06.320Z,94.89
2018-12-04T01:11:08.966Z,94.08
2018-12-04T01:12:12.644Z,93.44
2018-12-04T01:13:15.851Z,92.82
2018-12-04T01:14:18.918Z,94.00
2018-12-04T01:15:22.094Z,94.42
2018-12-04T01:16:25.244Z,93.87
2018-12-04T01:17:28.152Z,94.05
2018-12-04T01:18:31.051Z,94.34
2018-12-04T01:19:33.830Z,94.53
2018-12-04T01:20:36.745Z,94.39
2018-12-04T01:21:39.547Z,94.33
2018-12-04T01:22:42.861Z,93.74
2018-12-04T01:23:45.525Z,94.32
2018-12-04T01:24:48.637Z,94.13
2018-12-04T01:25:51.707Z,94.28
2018-12-04T01:26:54.411Z,93.83
2018-12-04T01:27:56.990Z,94.70
2018-12-04T01:29:00.388Z,95.01
2018-12-04T01:30:02.980Z,94.97
2018-12-04T01:31:05.679Z,94.86
2018-12-04T01:32:08.842Z,95.34
2018-12-04T01:33:11.473Z,95.60
2018-12-04T01:34:14.492Z,95.93
2018-12-04T01:35:17.839Z,95.35
2018-12-04T01:36:20.473Z,95.22
2018-12-04T01:37:24.359Z,94.86
2018-12-04T01:38:28.472Z,94.54
2018-12-04T01:39:31.426Z,94.70
2018-12-04T01:40:34.818Z,94.58
2018-12-04T01:41:38.576Z,93.66
2018-12-04T01:42:43.149Z,93.87
2018-12-04T01:43:47.014Z,93.95
2018-12-04T01:44:50.426Z,93.67
2018-12-04T01:45:53.408Z,94.01
2018-12-04T01:46:57.073Z,93.89
2018-12-04T01:47:59.982Z,93.77
2018-12-04T01:49:03.227Z,94.08
2018-12-04T01:50:07.830Z,94.25
2018-12-04T01:51:11.174Z,94.22
2018-12-04T01:52:13.781Z,94.23
2018-12-04T01:53:16.942Z,94.32
2018-12-04T01:54:20.344Z,93.69
2018-12-04T01:55:23.017Z,93.90
2018-12-04T01:56:25.689Z,93.79
2018-12-04T01:57:28.317Z,93.92
2018-12-04T01:58:31.628Z,93.90
2018-12-04T01:59:34.778Z,94.26
2018-12-04T02:00:37.672Z,94.05
2018-12-04T02:01:40.269Z,93.72
2018-12-04T02:02:43.287Z,94.64
2018-12-04T02:03:47.077Z,94.32
2018-12-04T02:04:49.783Z,94.36
2018-12-04T02:05:52.792Z,94.30
2018-12-04T02:06:56.192Z,94.62
2018-12-04T02:07:59.009Z,94.40
2018-12-04T02:09:01.790Z,94.27
2018-12-04T02:10:07.494Z,94.14
2018-12-04T02:11:11.768Z,93.95
2018-12-04T02:12:15.022Z,93.90
2018-12-04T02:13:18.392Z,93.87
2018-12-04T02:14:21.573Z,93.85
2018-12-04T02:15:25.282Z,93.99
2018-12-04T02:16:27.885Z,93.99
2018-12-04T02:17:30.503Z,93.70
2018-12-04T02:18:33.953Z,94.06
2018-12-04T02:19:37.848Z,94.04
2018-12-04T02:20:40.565Z,94.03
2018-12-04T02:21:43.493Z,94.19
2018-12-04T02:22:46.519Z,93.76
2018-12-04T02:23:49.353Z,93.55
2018-12-04T02:24:52.208Z,92.96
2018-12-04T02:25:55.244Z,92.99
2018-12-04T02:26:57.843Z,93.02
2018-12-04T02:28:00.563Z,93.29
2018-12-04T02:29:03.151Z,92.81
2018-12-04T02:30:06.458Z,93.10
2018-12-04T02:31:09.022Z,92.68
2018-12-04T02:32:12.131Z,92.18
2018-12-04T02:33:15.031Z,91.95
2018-12-04T02:34:17.718Z,91.14
2018-12-04T02:35:21.008Z,90.89
2018-12-04T02:36:23.756Z,91.09
2018-12-04T02:37:26.850Z,90.70
2018-12-04T02:38:29.885Z,90.67
2018-12-04T02:39:32.648Z,90.32
2018-12-04T02:40:35.436Z,90.40
2018-12-04T02:41:39.063Z,90.15
2018-12-04T02:42:42.253Z,90.18
2018-12-04T02:43:46.834Z,90.07
2018-12-04T02:44:49.992Z,90.32
2018-12-04T02:45:53.279Z,89.98
2018-12-04T02:46:56.166Z,90.18
2018-12-04T02:47:59.332Z,90.03
2018-12-04T02:49:02.590Z,89.70
2018-12-04T02:50:06.105Z,89.93
2018-12-04T02:51:09.489Z,89.84
2018-12-04T02:52:13.470Z,89.59
2018-12-04T02:53:18.415Z,89.13
2018-12-04T02:54:21.587Z,89.50
2018-12-04T02:55:24.615Z,89.64
2018-12-04T02:56:27.674Z,89.36
2018-12-04T02:57:32.325Z,89.32
2018-12-04T02:58:35.375Z,89.60
2018-12-04T02:59:38.024Z,89.51
2018-12-04T03:00:41.129Z,89.05
2018-12-04T03:01:43.915Z,89.43
2018-12-04T03:02:46.451Z,89.52
2018-12-04T03:03:49.872Z,89.73
2018-12-04T03:04:53.340Z,89.62
2018-12-04T03:05:55.875Z,89.66
2018-12-04T03:06:58.495Z,89.59
2018-12-04T03:08:01.253Z,89.78
2018-12-04T03:09:04.567Z,89.60
2018-12-04T03:10:08.189Z,89.69
2018-12-04T03:11:11.431Z,89.97
2018-12-04T03:12:14.862Z,90.04
2018-12-04T03:13:18.274Z,90.09
2018-12-04T03:14:22.331Z,90.39
2018-12-04T03:15:26.209Z,90.39
2018-12-04T03:16:30.236Z,90.39
2018-12-04T03:17:33.787Z,90.39
2018-12-04T03:18:36.537Z,90.34
2018-12-04T03:19:39.985Z,90.40
2018-12-04T03:20:42.545Z,90.14
2018-12-04T03:21:46.420Z,89.78
2018-12-04T03:22:50.736Z,90.13
2018-12-04T03:23:54.075Z,90.46
2018-12-04T03:24:57.434Z,90.52
2018-12-04T03:26:00.162Z,90.57
2018-12-04T03:27:03.191Z,90.93
2018-12-04T03:28:05.763Z,91.37
2018-12-04T03:29:08.712Z,90.98
2018-12-04T03:30:11.787Z,91.54
2018-12-04T03:31:14.570Z,91.65
2018-12-04T03:32:17.476Z,91.59
2018-12-04T03:33:20.044Z,92.10
2018-12-04T03:34:22.599Z,92.15
2018-12-04T03:35:25.538Z,91.95
2018-12-04T03:36:28.184Z,92.05
2018-12-04T03:37:30.876Z,91.47
2018-12-04T03:38:33.479Z,91.77
2018-12-04T03:39:36.484Z,92.18
2018-12-04T03:40:39.543Z,92.15
2018-12-04T03:41:42.515Z,91.63
2018-12-04T03:42:45.058Z,91.73
2018-12-04T03:43:47.675Z,91.69
2018-12-04T03:44:50.310Z,91.91
2018-12-04T03:45:53.123Z,91.74
2018-12-04T03:46:55.731Z,91.75
2018-12-04T03:47:59.153Z,91.65
2018-12-04T03:49:02.055Z,91.73
2018-12-04T03:50:04.818Z,91.82
2018-12-04T03:51:08.227Z,91.94
2018-12-04T03:52:11.126Z,91.78
2018-12-04T03:53:13.730Z,91.70
2018-12-04T03:54:16.682Z,91.93
2018-12-04T03:55:19.316Z,92.65
2018-12-04T03:56:22.480Z,92.77
2018-12-04T03:57:25.044Z,93.23
2018-12-04T03:58:27.623Z,93.28
2018-12-04T03:59:30.334Z,93.26
2018-12-04T04:00:33.100Z,93.21
2018-12-04T04:01:35.993Z,92.73
2018-12-04T04:02:38.970Z,93.30
2018-12-04T04:03:41.682Z,93.18
2018-12-04T04:04:44.355Z,93.13
2018-12-04T04:05:47.020Z,93.04
2018-12-04T04:06:49.867Z,92.96
2018-12-04T04:07:52.676Z,92.83
2018-12-04T04:08:56.179Z,92.74
2018-12-04T04:09:58.704Z,92.76
2018-12-04T04:11:01.628Z,92.72
2018-12-04T04:12:04.828Z,92.85
2018-12-04T04:13:08.036Z,92.42
2018-12-04T04:14:11.252Z,92.73
2018-12-04T04:15:14.339Z,92.88
2018-12-04T04:16:17.034Z,92.66
2018-12-04T04:17:20.031Z,92.68
2018-12-04T04:18:23.211Z,92.91
2018-12-04T04:19:26.205Z,92.80
2018-12-04T04:20:29.045Z,92.56
2018-12-04T04:21:32.307Z,92.88
2018-12-04T04:22:35.710Z,93.10
2018-12-04T04:23:38.869Z,92.93
2018-12-04T04:24:42.313Z,93.26
2018-12-04T04:25:46.314Z,93.21
2018-12-04T04:26:49.618Z,93.29
2018-12-04T04:27:52.668Z,93.44
2018-12-04T04:28:57.309Z,93.37
2018-12-04T04:30:00.473Z,92.82
2018-12-04T04:31:04.620Z,93.24
2018-12-04T04:32:07.529Z,93.63
2018-12-04T04:33:10.406Z,93.59
2018-12-04T04:34:13.656Z,93.61
2018-12-04T04:35:16.258Z,93.76
2018-12-04T04:36:18.801Z,93.73
2018-12-04T04:37:22.383Z,93.55
2018-12-04T04:38:26.112Z,94.10
2018-12-04T04:39:28.725Z,93.85
2018-12-04T04:40:31.972Z,93.56
2018-12-04T04:41:35.140Z,93.68
2018-12-04T04:42:37.931Z,93.68
2018-12-04T04:43:40.969Z,93.90
2018-12-04T04:44:43.806Z,93.44
2018-12-04T04:45:46.373Z,93.51
2018-12-04T04:46:49.181Z,93.43
2018-12-04T04:47:51.805Z,93.22
2018-12-04T04:48:54.351Z,93.06
2018-12-04T04:49:56.941Z,93.17
2018-12-04T04:50:59.559Z,92.73
2018-12-04T04:52:02.160Z,92.65
2018-12-04T04:53:04.761Z,93.20
2018-12-04T04:54:07.455Z,93.27
2018-12-04T04:55:09.959Z,93.38
2018-12-04T04:56:12.531Z,93.09
2018-12-04T04:57:15.105Z,93.55
2018-12-04T04:58:17.660Z,92.90
2018-12-04T04:59:20.250Z,92.94
2018-12-04T05:00:22.905Z,92.77
2018-12-04T05:01:25.436Z,93.15
2018-12-04T05:02:27.967Z,93.19
2018-12-04T05:03:30.572Z,93.40
2018-12-04T05:04:33.180Z,93.01
2018-12-04T05:05:39.976Z,93.40
2018-12-04T05:06:42.611Z,92.94
2018-12-04T05:07:45.495Z,93.06
2018-12-04T05:08:48.072Z,92.88
2018-12-04T05:09:50.723Z,92.72
2018-12-04T05:10:53.319Z,93.07
2018-12-04T05:11:55.842Z,92.89
2018-12-04T05:12:58.431Z,92.83
2018-12-04T05:14:01.344Z,93.35
2018-12-04T05:15:03.891Z,93.33
2018-12-04T05:16:06.437Z,93.40
2018-12-04T05:17:08.983Z,93.06
2018-12-04T05:18:11.615Z,93.49
2018-12-04T05:19:14.175Z,93.13
2018-12-04T05:20:17.157Z,92.94
2018-12-04T05:21:21.754Z,93.14
2018-12-04T05:22:26.450Z,92.59
2018-12-04T05:23:29.887Z,92.90
2018-12-04T05:24:32.536Z,92.94
2018-12-04T05:25:35.148Z,92.25
2018-12-04T05:26:38.124Z,92.08
2018-12-04T05:27:40.738Z,92.62
2018-12-04T05:28:43.358Z,91.88
2018-12-04T05:29:45.932Z,91.82
2018-12-04T05:30:48.489Z,92.00
2018-12-04T05:31:52.036Z,92.30
2018-12-04T05:32:55.293Z,92.05
2018-12-04T05:33:58.114Z,91.83
2018-12-04T05:35:00.644Z,92.22
2018-12-04T05:36:03.258Z,92.33
2018-12-04T05:37:05.830Z,92.38
2018-12-04T05:38:08.437Z,92.04
2018-12-04T05:39:11.326Z,91.45
2018-12-04T05:40:13.911Z,91.95
2018-12-04T05:41:16.463Z,92.09
2018-12-04T05:42:19.005Z,91.90
2018-12-04T05:43:21.563Z,91.87
2018-12-04T05:44:24.201Z,91.96
2018-12-04T05:45:27.122Z,91.76
2018-12-04T05:46:29.723Z,91.52
2018-12-04T05:47:32.285Z,91.61
2018-12-04T05:48:34.886Z,91.60
2018-12-04T05:49:37.475Z,91.53
2018-12-04T05:50:40.034Z,91.43
2018-12-04T05:51:42.941Z,91.22
2018-12-04T05:52:45.533Z,91.13
2018-12-04T05:53:48.112Z,91.19
2018-12-04T05:54:51.657Z,90.92
2018-12-04T05:55:54.225Z,91.24
2018-12-04T05:56:57.058Z,91.24
2018-12-04T05:58:00.671Z,91.28
2018-12-04T05:59:03.271Z,90.85
2018-12-04T06:00:05.859Z,90.61
2018-12-04T06:01:08.449Z,90.64
2018-12-04T06:02:10.984Z,90.53
2018-12-04T06:03:13.551Z,90.47
2018-12-04T06:04:16.628Z,90.54
2018-12-04T06:05:19.215Z,90.83
2018-12-04T06:06:21.744Z,90.15
2018-12-04T06:07:24.682Z,90.25
2018-12-04T06:08:28.159Z,90.03
2018-12-04T06:09:30.797Z,90.32
2018-12-04T06:10:33.355Z,90.04
2018-12-04T06:11:36.200Z,90.49
2018-12-04T06:12:38.740Z,90.49
2018-12-04T06:13:41.438Z,90.38
2018-12-04T06:14:44.113Z,90.69
2018-12-04T06:15:47.266Z,90.64
2018-12-04T06:16:49.913Z,90.89
2018-12-04T06:17:52.454Z,91.26
2018-12-04T06:18:55.055Z,91.13
2018-12-04T06:19:57.722Z,90.98
2018-12-04T06:21:00.363Z,91.46
2018-12-04T06:22:02.982Z,91.52
2018-12-04T06:23:05.543Z,91.22
2018-12-04T06:24:08.165Z,91.55
2018-12-04T06:25:10.865Z,91.49
2018-12-04T06:26:13.535Z,91.82
2018-12-04T06:27:16.496Z,91.57
2018-12-04T06:28:19.372Z,91.79
2018-12-04T06:29:22.158Z,91.96
2018-12-04T06:43:57.066Z,91.90
2018-12-04T06:44:59.715Z,92.08
2018-12-04T06:46:02.312Z,92.82
2018-12-04T06:47:04.961Z,93.17
2018-12-04T06:48:07.603Z,93.42
2018-12-04T06:49:10.689Z,93.53
2018-12-04T06:50:13.302Z,93.56
2018-12-04T06:51:15.895Z,93.24
2018-12-04T06:52:18.510Z,92.71
2018-12-04T06:53:21.283Z,93.00
2018-12-04T06:54:24.206Z,93.07
2018-12-04T06:55:29.481Z,93.15
2018-12-04T06:56:32.436Z,93.09
2018-12-04T06:57:35.071Z,92.85
2018-12-04T06:58:37.674Z,93.07
2018-12-04T06:59:40.251Z,92.85
2018-12-04T07:00:42.842Z,92.90
2018-12-04T07:01:45.963Z,92.96
2018-12-04T07:02:48.661Z,92.80
2018-12-04T07:03:51.310Z,92.77
2018-12-04T07:04:53.979Z,92.77
2018-12-04T07:05:57.197Z,92.63
2018-12-04T07:06:59.845Z,92.85
2018-12-04T07:08:02.549Z,92.97
2018-12-04T07:09:05.171Z,93.25
2018-12-04T07:10:07.841Z,93.18
2018-12-04T07:11:10.450Z,92.85
2018-12-04T07:12:13.069Z,92.79
2018-12-04T07:13:15.999Z,92.64
2018-12-04T07:14:18.618Z,92.81
2018-12-04T07:15:21.269Z,93.42
2018-12-04T07:16:23.860Z,93.11
2018-12-04T07:17:26.452Z,92.66
2018-12-04T07:18:29.657Z,92.95
2018-12-04T07:19:32.831Z,93.03
2018-12-04T07:20:35.495Z,93.49
2018-12-04T07:22:05.406Z,93.40
2018-12-04T07:23:08.104Z,93.37
2018-12-04T07:24:10.705Z,93.68
2018-12-04T07:25:13.356Z,93.29
2018-12-04T07:26:16.729Z,93.79
2018-12-04T07:27:19.839Z,93.72
2018-12-04T07:28:22.479Z,93.52
2018-12-04T07:29:25.047Z,93.27
2018-12-04T07:30:27.628Z,93.55
2018-12-04T07:31:30.195Z,93.44
2018-12-04T07:32:38.594Z,93.41
2018-12-04T07:34:51.477Z,92.96
2018-12-04T07:35:54.064Z,93.03
2018-12-04T07:36:56.635Z,92.88
2018-12-04T07:37:59.766Z,93.04
2018-12-04T07:39:02.383Z,92.96
2018-12-04T07:40:04.966Z,93.31
2018-12-04T07:41:07.588Z,92.97
2018-12-04T07:42:10.669Z,92.71
2018-12-04T07:43:13.302Z,92.72
2018-12-04T07:44:16.368Z,92.80
2018-12-04T07:45:19.056Z,92.70
2018-12-04T07:46:21.858Z,92.80
2018-12-04T07:47:24.831Z,92.53
2018-12-04T07:48:27.375Z,92.74
2018-12-04T07:49:29.933Z,92.53
2018-12-04T07:50:32.872Z,92.82
2018-12-04T07:51:35.502Z,92.89
2018-12-04T07:52:38.123Z,92.26
2018-12-04T07:53:41.747Z,92.78
2018-12-04T07:54:45.171Z,92.28
2018-12-04T07:55:47.789Z,92.54
2018-12-04T07:56:50.693Z,92.27
2018-12-04T07:57:53.638Z,92.19
2018-12-04T07:58:56.236Z,92.32
2018-12-04T07:59:58.797Z,92.25
2018-12-04T08:01:01.422Z,92.71
2018-12-04T08:02:04.059Z,92.23
2018-12-04T08:03:07.135Z,92.50
2018-12-04T08:04:09.686Z,92.01
2018-12-04T08:05:12.336Z,92.08
2018-12-04T08:06:15.518Z,92.33
2018-12-04T08:07:18.098Z,92.16
2018-12-04T08:08:23.984Z,91.99
2018-12-04T08:09:26.673Z,91.73
2018-12-04T08:10:29.252Z,91.92
2018-12-04T08:11:31.856Z,92.03
2018-12-04T08:12:35.265Z,91.65
2018-12-04T08:13:37.854Z,91.39
2018-12-04T08:14:41.253Z,91.59
2018-12-04T08:15:44.271Z,91.84
2018-12-04T08:16:47.683Z,91.98
2018-12-04T08:17:51.165Z,91.49
2018-12-04T08:18:53.704Z,91.71
2018-12-04T08:19:57.311Z,91.75
2018-12-04T08:20:59.950Z,91.79
2018-12-04T08:22:03.069Z,91.83
2018-12-04T08:23:05.638Z,92.33
2018-12-04T08:24:08.199Z,92.27
2018-12-04T08:25:10.882Z,91.75
2018-12-04T08:26:13.480Z,92.02
2018-12-04T08:27:16.089Z,91.36
2018-12-04T08:28:19.537Z,90.80
2018-12-04T08:29:22.215Z,91.26
2018-12-04T08:30:24.789Z,90.84
2018-12-04T08:31:27.428Z,90.92
2018-12-04T08:32:30.072Z,90.71
2018-12-04T08:33:32.659Z,90.74
2018-12-04T08:34:35.744Z,91.34
2018-12-04T08:35:39.390Z,91.36
2018-12-04T08:36:45.095Z,91.63
2018-12-04T08:37:50.729Z,91.77
2018-12-04T08:38:53.370Z,91.92
2018-12-04T08:39:56.083Z,91.74
2018-12-04T08:40:59.396Z,92.00
2018-12-04T08:42:02.451Z,91.66
2018-12-04T08:43:05.113Z,91.41
2018-12-04T08:44:07.730Z,91.83
2018-12-04T08:45:10.415Z,91.70
2018-12-04T08:46:13.042Z,91.38
2018-12-04T08:47:16.386Z,91.29
2018-12-04T08:48:19.001Z,91.47
2018-12-04T08:49:21.606Z,91.01
2018-12-04T08:50:25.991Z,90.83
2018-12-04T08:51:28.900Z,91.52
2018-12-04T08:52:31.684Z,91.44
2018-12-04T08:53:35.926Z,91.01
2018-12-04T08:54:38.889Z,90.41
2018-12-04T08:55:42.283Z,91.17
2018-12-04T08:56:45.096Z,90.91
2018-12-04T08:57:47.721Z,91.03
2018-12-04T08:58:50.359Z,90.74
2018-12-04T08:59:53.695Z,90.61
2018-12-04T09:00:56.317Z,90.53
2018-12-04T09:01:58.946Z,90.33
2018-12-04T09:03:02.349Z,90.42
2018-12-04T09:04:05.071Z,90.39
2018-12-04T09:05:07.758Z,90.31
2018-12-04T09:06:13.226Z,89.84
2018-12-04T09:07:17.130Z,90.61
2018-12-04T09:08:20.073Z,90.50
2018-12-04T09:09:22.723Z,90.80
2018-12-04T09:10:25.420Z,90.89
2018-12-04T09:11:31.868Z,90.67
2018-12-04T09:12:34.980Z,90.53
2018-12-04T09:13:37.594Z,90.55
2018-12-04T09:14:40.487Z,89.59
2018-12-04T09:15:43.253Z,89.75
2018-12-04T09:16:46.792Z,87.99
2018-12-04T09:17:49.542Z,87.60
2018-12-04T09:18:52.721Z,87.26
2018-12-04T09:19:55.414Z,85.96
2018-12-04T09:20:59.168Z,85.05
2018-12-04T09:22:01.759Z,85.16
2018-12-04T09:23:04.520Z,85.73
2018-12-04T09:24:07.283Z,85.74
2018-12-04T09:25:10.023Z,85.53
2018-12-04T09:26:12.881Z,85.61
2018-12-04T09:27:15.527Z,84.79
2018-12-04T09:28:18.130Z,84.04
2018-12-04T09:29:20.713Z,82.89
2018-12-04T09:30:23.809Z,83.60
2018-12-04T09:31:26.402Z,81.49
2018-12-04T09:32:29.002Z,81.74
2018-12-04T09:33:31.595Z,79.81
2018-12-04T09:34:34.603Z,80.42
2018-12-04T09:35:37.257Z,79.94
2018-12-04T09:36:41.487Z,79.86
2018-12-04T09:37:44.184Z,79.29
2018-12-04T09:38:47.790Z,79.46
2018-12-04T09:39:50.420Z,80.21
2018-12-04T09:40:54.274Z,80.54
2018-12-04T09:41:57.314Z,78.14
2018-12-04T09:43:04.209Z,78.93
2018-12-04T09:44:04.890Z,76.24
2018-12-04T09:45:07.621Z,77.41
2018-12-04T09:46:11.839Z,75.55
2018-12-04T09:47:14.469Z,78.34
2018-12-04T09:48:17.200Z,77.71
2018-12-04T09:49:20.265Z,78.88
2018-12-04T09:50:23.014Z,80.73
2018-12-04T09:51:25.618Z,79.77
2018-12-04T09:52:29.179Z,78.91
2018-12-04T09:53:31.809Z,79.31
2018-12-04T09:54:34.432Z,79.36
2018-12-04T09:55:37.407Z,79.85
2018-12-04T09:56:40.212Z,79.31
2018-12-04T09:57:42.835Z,78.05
2018-12-04T09:58:46.447Z,78.63
2018-12-04T09:59:49.062Z,78.41
2018-12-04T10:00:51.702Z,78.31
2018-12-04T10:01:54.621Z,78.00
2018-12-04T10:02:57.506Z,78.08
2018-12-04T10:04:00.195Z,78.69
2018-12-04T10:05:05.035Z,78.88
2018-12-04T10:06:08.444Z,78.47
2018-12-04T10:07:11.967Z,78.54
2018-12-04T10:08:15.165Z,77.91
2018-12-04T10:09:17.797Z,77.24
2018-12-04T10:10:22.431Z,78.66
2018-12-04T10:11:25.008Z,78.15
2018-12-04T10:12:27.827Z,78.00
2018-12-04T10:13:31.716Z,78.79
2018-12-04T10:14:34.319Z,79.38
2018-12-04T10:15:38.117Z,79.52
2018-12-04T10:16:41.321Z,79.16
2018-12-04T10:17:44.033Z,79.25
2018-12-04T10:18:47.752Z,79.63
2018-12-04T10:19:50.949Z,79.41
2018-12-04T10:20:53.743Z,79.23
2018-12-04T10:21:56.358Z,79.82
2018-12-04T10:22:58.960Z,79.29
2018-12-04T10:24:01.616Z,78.78
2018-12-04T10:25:04.257Z,79.02
2018-12-04T10:26:07.170Z,79.95
2018-12-04T10:27:09.767Z,79.87
2018-12-04T10:28:12.436Z,79.39
2018-12-04T10:29:15.029Z,79.11
2018-12-04T10:30:19.259Z,78.78
2018-12-04T10:31:22.500Z,79.55
2018-12-04T10:32:25.610Z,79.63
2018-12-04T10:33:28.865Z,79.27
2018-12-04T10:34:32.436Z,79.77
2018-12-04T10:35:35.301Z,79.96
2018-12-04T10:36:37.922Z,80.24
2018-12-04T10:37:40.629Z,80.38
2018-12-04T10:38:43.715Z,79.95
2018-12-04T10:39:46.415Z,81.52
2018-12-04T10:40:49.096Z,82.12
2018-12-04T10:41:51.739Z,81.25
2018-12-04T10:42:57.068Z,81.20
2018-12-04T10:43:59.668Z,80.60
2018-12-04T10:45:02.765Z,80.63
2018-12-04T10:46:06.067Z,80.80
2018-12-04T10:47:08.702Z,80.85
2018-12-04T10:48:11.311Z,79.68
2018-12-04T10:49:14.598Z,79.57
2018-12-04T10:50:17.397Z,78.72
2018-12-04T10:51:22.877Z,78.60
2018-12-04T10:52:25.474Z,78.41
2018-12-04T10:53:29.316Z,78.68
2018-12-04T10:54:32.047Z,77.78
2018-12-04T10:55:34.674Z,77.92
2018-12-04T10:56:38.696Z,77.85
2018-12-04T10:57:41.726Z,77.58
2018-12-04T10:58:44.626Z,77.70
2018-12-04T10:59:48.257Z,76.92
2018-12-04T11:00:57.012Z,76.88
2018-12-04T11:02:04.745Z,77.74
2018-12-04T11:03:14.017Z,77.53
2018-12-04T11:04:16.627Z,77.64
2018-12-04T11:05:21.984Z,77.55
2018-12-04T11:06:24.633Z,78.00
2018-12-04T11:07:28.130Z,78.31
2018-12-04T11:08:30.778Z,78.02
2018-12-04T11:09:34.454Z,77.83
2018-12-04T11:10:37.106Z,77.59
2018-12-04T11:11:39.746Z,77.40
2018-12-04T11:12:43.171Z,77.41
2018-12-04T11:13:45.766Z,76.72
2018-12-04T11:14:48.631Z,76.82
2018-12-04T11:15:51.720Z,76.80
2018-12-04T11:16:54.300Z,76.27
2018-12-04T11:17:56.932Z,76.52
2018-12-04T11:18:59.548Z,76.61
2018-12-04T11:20:02.601Z,76.22
2018-12-04T11:21:05.208Z,76.26
2018-12-04T11:22:08.446Z,76.44
2018-12-04T11:23:11.123Z,76.01
2018-12-04T11:24:13.764Z,76.20
2018-12-04T11:25:16.405Z,76.82
2018-12-04T11:26:19.079Z,76.93
2018-12-04T11:27:21.665Z,77.24
2018-12-04T11:28:24.705Z,77.59
2018-12-04T11:29:27.372Z,77.82
2018-12-04T11:42:55.434Z,65.66
2018-12-04T11:45:09.027Z,66.28
2018-12-04T11:46:12.730Z,65.52
2018-12-04T11:47:15.382Z,62.77
2018-12-04T11:48:18.411Z,65.61
2018-12-04T11:49:21.075Z,67.34
2018-12-04T11:50:23.760Z,66.68
2018-12-04T11:51:26.465Z,66.81
2018-12-04T11:52:29.103Z,65.92
2018-12-04T11:53:34.125Z,67.21
2018-12-04T11:55:41.082Z,70.18
2018-12-04T11:56:43.987Z,69.86
2018-12-04T11:57:46.724Z,68.85
2018-12-04T11:58:49.412Z,69.85
2018-12-04T11:59:52.018Z,70.09
2018-12-04T12:00:55.275Z,69.61
2018-12-04T12:01:58.117Z,70.18
2018-12-04T12:03:00.906Z,71.05
2018-12-04T12:04:04.633Z,71.17
2018-12-04T12:05:07.395Z,71.44
2018-12-04T12:06:10.133Z,71.29
2018-12-04T12:07:13.235Z,71.86
2018-12-04T12:08:16.689Z,72.17
2018-12-04T12:09:19.884Z,71.91
2018-12-04T12:10:22.602Z,71.82
2018-12-04T12:11:25.483Z,72.57
2018-12-04T12:12:28.256Z,72.35
2018-12-04T12:13:31.476Z,70.37
2018-12-04T12:14:34.260Z,70.31
2018-12-04T12:15:38.540Z,69.15
2018-12-04T12:16:41.390Z,67.69
2018-12-04T12:17:45.561Z,66.79
2018-12-04T12:18:48.200Z,68.64
2018-12-04T12:19:51.571Z,65.63
2018-12-04T12:20:54.254Z,67.39
2018-12-04T12:21:57.056Z,65.34
2018-12-04T12:23:01.094Z,64.35
2018-12-04T12:24:03.800Z,64.04
2018-12-04T12:25:06.510Z,62.61
2018-12-04T12:26:09.642Z,63.55
2018-12-04T12:27:13.025Z,63.19
2018-12-04T12:28:15.646Z,62.91
2018-12-04T12:29:18.734Z,63.29
2018-12-04T12:30:22.509Z,63.13
2018-12-04T12:31:25.336Z,62.09
2018-12-04T12:32:28.403Z,63.20
2018-12-04T12:33:31.355Z,62.32
2018-12-04T12:34:34.020Z,61.68
2018-12-04T12:35:36.804Z,61.77
2018-12-04T12:36:39.647Z,60.36
2018-12-04T12:37:42.560Z,59.99
2018-12-04T12:38:46.616Z,59.42
2018-12-04T12:39:50.173Z,58.58
2018-12-04T12:40:52.858Z,58.54
2018-12-04T12:41:56.600Z,57.66
2018-12-04T12:42:59.732Z,57.63
2018-12-04T12:44:02.652Z,56.61
2018-12-04T12:45:05.799Z,56.78
2018-12-04T12:46:08.877Z,57.37
2018-12-04T12:47:11.541Z,55.88
2018-12-04T12:48:18.229Z,56.33
2018-12-04T12:49:21.767Z,56.15
2018-12-04T12:50:24.502Z,56.15
2018-12-04T12:51:32.284Z,56.78
2018-12-04T12:52:35.610Z,56.20
2018-12-04T12:53:38.275Z,57.62
2018-12-04T12:54:41.677Z,57.89
2018-12-04T12:55:44.372Z,58.14
2018-12-04T12:56:47.048Z,58.06
2018-12-04T12:57:51.268Z,58.58
2018-12-04T12:58:54.017Z,58.46
2018-12-04T12:59:56.631Z,58.51
2018-12-04T13:01:00.383Z,58.37
2018-12-04T13:02:04.458Z,59.67
2018-12-04T13:03:08.113Z,59.01
2018-12-04T13:04:11.291Z,58.73
2018-12-04T13:05:14.461Z,60.33
2018-12-04T13:06:18.304Z,61.20
2018-12-04T13:07:22.489Z,61.51
2018-12-04T13:08:25.479Z,61.11
2018-12-04T13:09:28.216Z,61.62
2018-12-04T13:10:30.901Z,62.04
2018-12-04T13:11:35.101Z,62.45
2018-12-04T13:12:38.801Z,63.48
2018-12-04T13:13:41.513Z,63.46
2018-12-04T13:14:44.179Z,62.94
2018-12-04T13:15:47.137Z,63.41
2018-12-04T13:16:54.531Z,63.26
2018-12-04T13:18:00.759Z,63.75
2018-12-04T13:19:03.446Z,63.23
2018-12-04T13:20:06.213Z,62.65
2018-12-04T13:21:08.834Z,63.53
2018-12-04T13:22:11.984Z,63.78
2018-12-04T13:23:14.669Z,64.72
2018-12-04T13:24:17.274Z,65.89
2018-12-04T13:25:19.885Z,66.42
2018-12-04T13:26:23.780Z,67.30
2018-12-04T13:27:26.459Z,68.41
2018-12-04T13:28:29.661Z,69.94
2018-12-04T13:29:34.172Z,70.90
2018-12-04T13:30:36.778Z,71.54
2018-12-04T13:31:39.464Z,73.03
2018-12-04T13:32:43.068Z,73.81
2018-12-04T13:33:46.665Z,74.08
2018-12-04T13:34:51.742Z,74.83
2018-12-04T13:35:54.370Z,75.33
2018-12-04T13:37:00.030Z,75.60
2018-12-04T13:38:03.354Z,75.56
2018-12-04T13:39:06.967Z,75.91
2018-12-04T13:40:09.626Z,75.62
2018-12-04T13:41:13.304Z,75.18
2018-12-04T13:42:19.265Z,75.36
2018-12-04T13:43:21.880Z,75.56
2018-12-04T13:44:25.079Z,75.54
2018-12-04T13:45:28.098Z,75.05
2018-12-04T13:46:30.731Z,74.76
2018-12-04T13:47:33.719Z,74.65
2018-12-04T13:48:37.360Z,74.74
2018-12-04T13:49:40.262Z,74.66
2018-12-04T13:50:42.913Z,73.89
2018-12-04T13:51:45.590Z,74.26
2018-12-04T13:52:48.287Z,74.45
2018-12-04T13:53:52.213Z,74.83
2018-12-04T13:54:54.796Z,74.58
2018-12-04T13:55:58.334Z,74.53
2018-12-04T13:57:02.032Z,74.68
2018-12-04T13:58:05.709Z,74.63
2018-12-04T13:59:08.421Z,74.59
2018-12-04T14:00:11.541Z,73.98
2018-12-04T14:01:16.448Z,73.65
2018-12-04T14:02:19.239Z,72.55